Time;durP1;ratioP1;P1;durP2;ratioP2;P2;SDS_P1;SDS_P2;PMS_P1;PMS_P2;Temp;Humidity;BMP_temperature;BMP_pressure;BME280_temperature;BME280_humidity;BME280_pressure;Samples;Min_cycle;Max_cycle;Signal;HPM_P1;HPM_P2
2021/10/11 00:01:15;;;;;;;0.10;0.10;;;;;;;;;;5043819;28;20471;-71
2021/10/11 00:03:41;;;;;;;0.10;0.10;;;;;;;;;;5049163;28;20229;-71
2021/10/11 00:06:08;;;;;;;0.30;0.30;;;;;;;;;;5049516;28;20251;-72
2021/10/11 00:08:34;;;;;;;0.10;0.10;;;;;;;;;;5050813;28;20237;-68
2021/10/11 00:11:00;;;;;;;0.10;0.10;;;;;;;;;;5051508;28;20201;-72
2021/10/11 00:13:26;;;;;;;0.20;0.20;;;;;;;;;;5045033;28;20214;-73
2021/10/11 00:15:54;;;;;;;0.10;0.10;;;;;;;;;;5053574;28;20538;-72
2021/10/11 00:18:20;;;;;;;0.10;0.10;;;;;;;;;;5055991;28;20247;-71
2021/10/11 00:20:47;;;;;;;0.20;0.20;;;;;;;;;;5053102;28;20264;-69
2021/10/11 00:23:13;;;;;;;0.10;0.10;;;;;;;;;;5057143;28;20401;-70
2021/10/11 00:25:39;;;;;;;3.83;3.63;;;;;;;;;;5053471;28;20262;-73
2021/10/11 00:28:06;;;;;;;0.10;0.10;;;;;;;;;;5058918;28;20453;-70
2021/10/11 00:30:32;;;;;;;0.60;0.60;;;;;;;;;;5048112;28;20385;-71
2021/10/11 00:32:59;;;;;;;0.20;0.20;;;;;;;;;;5055825;28;20201;-73
2021/10/11 00:35:26;;;;;;;0.20;0.20;;;;;;;;;;5051878;28;20219;-73
2021/10/11 00:37:52;;;;;;;0.10;0.10;;;;;;;;;;5054995;28;20200;-71
2021/10/11 00:40:18;;;;;;;0.20;0.20;;;;;;;;;;5054976;28;20396;-71
2021/10/11 00:42:45;;;;;;;0.10;0.10;;;;;;;;;;5057714;28;20314;-72
2021/10/11 00:45:11;;;;;;;0.10;0.10;;;;;;;;;;5055723;28;20503;-72
2021/10/11 00:47:37;;;;;;;0.10;0.10;;;;;;;;;;5047721;28;20229;-71
2021/10/11 00:50:05;;;;;;;0.13;0.13;;;;;;;;;;5056229;28;20239;-72
2021/10/11 00:52:31;;;;;;;0.10;0.10;;;;;;;;;;5054111;28;20495;-72
2021/10/11 00:54:58;;;;;;;0.10;0.10;;;;;;;;;;5048924;28;20230;-72
2021/10/11 00:57:24;;;;;;;0.10;0.10;;;;;;;;;;5058180;28;20526;-73
2021/10/11 00:59:50;;;;;;;0.17;0.17;;;;;;;;;;5050126;28;20559;-72
2021/10/11 01:02:17;;;;;;;0.20;0.20;;;;;;;;;;5048622;28;20213;-68
2021/10/11 01:04:43;;;;;;;0.20;0.20;;;;;;;;;;5053490;28;20231;-71
2021/10/11 01:07:11;;;;;;;0.10;0.10;;;;;;;;;;5059316;28;20201;-71
2021/10/11 01:09:37;;;;;;;0.97;0.97;;;;;;;;;;5052804;28;20220;-72
2021/10/11 01:12:04;;;;;;;0.10;0.10;;;;;;;;;;5053952;28;20229;-72
2021/10/11 01:14:30;;;;;;;0.10;0.10;;;;;;;;;;5055203;28;20200;-73
2021/10/11 01:16:56;;;;;;;0.10;0.10;;;;;;;;;;5045556;28;20208;-73
2021/10/11 01:19:22;;;;;;;0.20;0.20;;;;;;;;;;5058285;28;20244;-72
2021/10/11 01:21:50;;;;;;;1.47;1.37;;;;;;;;;;5058395;28;20200;-70
2021/10/11 01:24:16;;;;;;;1.43;1.43;;;;;;;;;;5050853;28;20425;-73
2021/10/11 01:26:43;;;;;;;0.10;0.10;;;;;;;;;;5046392;28;20201;-73
2021/10/11 01:29:10;;;;;;;1.70;1.70;;;;;;;;;;5058756;28;20269;-73
2021/10/11 01:31:37;;;;;;;0.17;0.17;;;;;;;;;;5056363;28;20204;-70
2021/10/11 01:34:03;;;;;;;0.30;0.30;;;;;;;;;;5050819;28;20268;-72
2021/10/11 01:36:30;;;;;;;0.10;0.10;;;;;;;;;;5048161;28;20243;-73
2021/10/11 01:38:58;;;;;;;0.20;0.20;;;;;;;;;;5049058;28;20196;-72
2021/10/11 01:41:24;;;;;;;0.10;0.10;;;;;;;;;;5046833;28;20553;-73
2021/10/11 01:43:51;;;;;;;0.10;0.10;;;;;;;;;;5053617;28;20488;-71
2021/10/11 01:46:17;;;;;;;0.20;0.20;;;;;;;;;;5047856;28;20488;-72
2021/10/11 01:48:43;;;;;;;0.20;0.20;;;;;;;;;;5054576;28;20281;-71
2021/10/11 01:51:09;;;;;;;0.20;0.20;;;;;;;;;;5054712;28;20208;-71
2021/10/11 01:53:36;;;;;;;0.20;0.20;;;;;;;;;;5050822;28;20213;-72
2021/10/11 01:56:03;;;;;;;0.13;0.13;;;;;;;;;;5051014;28;20205;-71
2021/10/11 01:58:30;;;;;;;0.20;0.20;;;;;;;;;;5050817;28;20206;-70
2021/10/11 02:00:57;;;;;;;0.10;0.10;;;;;;;;;;5046586;28;20244;-70
2021/10/11 02:03:23;;;;;;;0.10;0.10;;;;;;;;;;5049487;28;20469;-72
2021/10/11 02:05:49;;;;;;;0.20;0.20;;;;;;;;;;5056199;28;20216;-71
2021/10/11 02:08:15;;;;;;;0.10;0.10;;;;;;;;;;5046380;28;20229;-72
2021/10/11 02:10:41;;;;;;;0.10;0.10;;;;;;;;;;5043692;28;20250;-73
2021/10/11 02:13:09;;;;;;;0.10;0.10;;;;;;;;;;5043804;28;20209;-74
2021/10/11 02:15:35;;;;;;;0.10;0.10;;;;;;;;;;5043924;28;20251;-71
2021/10/11 02:18:01;;;;;;;0.13;0.13;;;;;;;;;;5043661;28;20394;-73
2021/10/11 02:20:27;;;;;;;13.90;4.50;;;;;;;;;;5043567;28;20487;-71
2021/10/11 02:22:54;;;;;;;0.20;0.20;;;;;;;;;;5043320;28;20201;-72
2021/10/11 02:25:20;;;;;;;0.10;0.10;;;;;;;;;;5043740;28;20231;-74
2021/10/11 02:27:46;;;;;;;0.20;0.20;;;;;;;;;;5057663;28;20200;-73
2021/10/11 02:30:14;;;;;;;0.17;0.17;;;;;;;;;;5043696;28;20201;-73
2021/10/11 02:32:41;;;;;;;0.10;0.10;;;;;;;;;;5057398;28;20207;-74
2021/10/11 02:35:08;;;;;;;0.20;0.20;;;;;;;;;;5043300;28;20208;-73
2021/10/11 02:37:34;;;;;;;0.10;0.10;;;;;;;;;;5057247;28;20245;-73
2021/10/11 02:40:01;;;;;;;0.10;0.10;;;;;;;;;;5043402;28;20204;-72
2021/10/11 02:42:27;;;;;;;0.10;0.10;;;;;;;;;;5043274;28;20487;-73
2021/10/11 02:44:53;;;;;;;0.20;0.20;;;;;;;;;;5043234;28;20550;-73
2021/10/11 02:47:21;;;;;;;0.20;0.20;;;;;;;;;;5053164;28;20226;-73
2021/10/11 02:49:47;;;;;;;0.10;0.10;;;;;;;;;;5046818;28;20565;-73
2021/10/11 02:52:13;;;;;;;0.20;0.20;;;;;;;;;;5042886;28;20239;-72
2021/10/11 02:54:39;;;;;;;0.20;0.20;;;;;;;;;;5043277;28;20276;-71
2021/10/11 02:57:06;;;;;;;2.00;1.90;;;;;;;;;;5043474;28;20201;-72
2021/10/11 02:59:32;;;;;;;0.10;0.10;;;;;;;;;;5042849;28;20224;-74
2021/10/11 03:01:59;;;;;;;0.10;0.10;;;;;;;;;;5042810;28;20250;-73
2021/10/11 03:04:26;;;;;;;0.10;0.10;;;;;;;;;;5042974;28;20282;-73
2021/10/11 03:06:52;;;;;;;0.20;0.20;;;;;;;;;;5057141;28;20211;-72
2021/10/11 03:09:19;;;;;;;0.10;0.10;;;;;;;;;;5042943;28;20526;-73
2021/10/11 03:11:45;;;;;;;0.10;0.10;;;;;;;;;;5042966;28;20503;-72
2021/10/11 03:14:11;;;;;;;0.10;0.10;;;;;;;;;;5043034;28;20266;-73
2021/10/11 03:16:37;;;;;;;0.20;0.20;;;;;;;;;;5042671;28;20238;-74
2021/10/11 03:19:03;;;;;;;0.10;0.10;;;;;;;;;;5042975;28;20478;-73
2021/10/11 03:21:31;;;;;;;0.17;0.17;;;;;;;;;;5042634;28;20212;-72
2021/10/11 03:23:57;;;;;;;0.10;0.10;;;;;;;;;;5042891;28;20496;-72
2021/10/11 03:26:23;;;;;;;0.10;0.10;;;;;;;;;;5042834;28;20205;-74
2021/10/11 03:28:49;;;;;;;0.10;0.10;;;;;;;;;;5042368;28;20282;-72
2021/10/11 03:31:16;;;;;;;0.10;0.10;;;;;;;;;;5049587;28;20511;-73
2021/10/11 03:33:42;;;;;;;0.10;0.10;;;;;;;;;;5050103;28;20228;-73
2021/10/11 03:36:08;;;;;;;0.10;0.10;;;;;;;;;;5047100;28;20200;-73
2021/10/11 03:38:39;;;;;;;0.20;0.20;;;;;;;;;;5052144;28;20200;-72
2021/10/11 03:41:07;;;;;;;0.10;0.10;;;;;;;;;;5042344;28;20200;-73
2021/10/11 03:43:33;;;;;;;0.10;0.10;;;;;;;;;;5042527;28;20231;-73
2021/10/11 03:45:59;;;;;;;0.10;0.10;;;;;;;;;;5042621;28;20205;-71
2021/10/11 03:48:26;;;;;;;0.17;0.17;;;;;;;;;;5051837;28;20258;-72
2021/10/11 03:50:52;;;;;;;0.10;0.10;;;;;;;;;;5042383;28;20247;-72
2021/10/11 03:53:18;;;;;;;0.10;0.10;;;;;;;;;;5042229;28;20410;-73
2021/10/11 03:55:45;;;;;;;0.10;0.10;;;;;;;;;;5042545;28;20429;-73
2021/10/11 03:58:12;;;;;;;0.10;0.10;;;;;;;;;;5056356;28;20249;-72
2021/10/11 04:00:38;;;;;;;0.10;0.10;;;;;;;;;;5043582;28;20245;-72
2021/10/11 04:03:06;;;;;;;0.10;0.10;;;;;;;;;;5051516;28;20215;-71
2021/10/11 04:05:33;;;;;;;0.10;0.10;;;;;;;;;;5057095;28;20213;-72
2021/10/11 04:08:03;;;;;;;0.10;0.10;;;;;;;;;;5046173;28;20429;-73
2021/10/11 04:10:32;;;;;;;0.20;0.20;;;;;;;;;;5046095;28;20228;-74
2021/10/11 04:13:03;;;;;;;0.10;0.10;;;;;;;;;;5045920;28;20208;-72
2021/10/11 04:15:29;;;;;;;0.10;0.10;;;;;;;;;;5045829;28;20228;-72
2021/10/11 04:17:56;;;;;;;0.10;0.10;;;;;;;;;;5045848;28;20292;-73
2021/10/11 04:20:22;;;;;;;0.10;0.10;;;;;;;;;;5059738;28;20273;-72
2021/10/11 04:22:48;;;;;;;0.20;0.20;;;;;;;;;;5045981;28;20201;-73
2021/10/11 04:25:15;;;;;;;0.10;0.10;;;;;;;;;;5045847;28;20375;-73
2021/10/11 04:27:42;;;;;;;0.13;0.13;;;;;;;;;;5045748;28;20224;-73
2021/10/11 04:30:10;;;;;;;0.20;0.20;;;;;;;;;;5049911;28;20259;-73
2021/10/11 04:32:36;;;;;;;0.20;0.20;;;;;;;;;;5047977;28;20205;-73
2021/10/11 04:35:02;;;;;;;0.10;0.10;;;;;;;;;;5054831;28;20203;-71
2021/10/11 04:37:29;;;;;;;0.20;0.20;;;;;;;;;;5049757;28;20247;-72
2021/10/11 04:39:55;;;;;;;0.20;0.20;;;;;;;;;;5045233;28;20193;-74
2021/10/11 04:42:21;;;;;;;0.20;0.20;;;;;;;;;;5045404;28;20204;-74
2021/10/11 04:44:47;;;;;;;0.10;0.10;;;;;;;;;;5045671;28;20209;-74
2021/10/11 04:47:15;;;;;;;0.10;0.10;;;;;;;;;;5045281;28;20235;-74
2021/10/11 04:49:41;;;;;;;0.10;0.10;;;;;;;;;;5045131;28;20228;-72
2021/10/11 04:52:07;;;;;;;0.10;0.10;;;;;;;;;;5061681;28;20312;-75
2021/10/11 04:54:34;;;;;;;0.20;0.20;;;;;;;;;;5055781;28;20380;-73
2021/10/11 04:57:00;;;;;;;0.10;0.10;;;;;;;;;;5055225;28;20211;-73
2021/10/11 04:59:26;;;;;;;0.20;0.20;;;;;;;;;;5047910;28;20422;-72
2021/10/11 05:01:52;;;;;;;0.10;0.10;;;;;;;;;;5057070;28;20212;-73
2021/10/11 05:04:20;;;;;;;0.20;0.20;;;;;;;;;;5061492;28;20235;-73
2021/10/11 05:06:46;;;;;;;0.20;0.20;;;;;;;;;;5044832;28;20220;-72
2021/10/11 05:09:12;;;;;;;0.20;0.20;;;;;;;;;;5049390;28;20355;-73
2021/10/11 05:11:39;;;;;;;0.20;0.20;;;;;;;;;;5053897;28;20434;-73
2021/10/11 05:14:05;;;;;;;0.10;0.10;;;;;;;;;;5044636;28;20247;-72
2021/10/11 05:16:34;;;;;;;0.10;0.10;;;;;;;;;;5044847;28;20259;-72
2021/10/11 05:19:00;;;;;;;0.10;0.10;;;;;;;;;;5048460;28;20242;-73
2021/10/11 05:21:28;;;;;;;0.10;0.10;;;;;;;;;;5062384;28;20439;-72
2021/10/11 05:23:54;;;;;;;0.10;0.10;;;;;;;;;;5062023;28;20209;-72
2021/10/11 05:26:20;;;;;;;0.10;0.10;;;;;;;;;;5054652;28;20220;-73
2021/10/11 05:28:47;;;;;;;0.20;0.20;;;;;;;;;;5058309;28;20204;-71
2021/10/11 05:31:13;;;;;;;0.20;0.20;;;;;;;;;;5050779;28;20238;-71
2021/10/11 05:33:39;;;;;;;0.10;0.10;;;;;;;;;;5064480;28;20265;-67
2021/10/11 05:36:05;;;;;;;0.10;0.10;;;;;;;;;;5050285;28;20277;-71
2021/10/11 05:38:34;;;;;;;0.20;0.20;;;;;;;;;;5064404;28;20250;-71
2021/10/11 05:41:00;;;;;;;0.40;0.40;;;;;;;;;;5064265;28;20446;-70
2021/10/11 05:43:26;;;;;;;0.20;0.20;;;;;;;;;;5063891;28;20279;-71
2021/10/11 05:45:53;;;;;;;0.10;0.10;;;;;;;;;;5063867;28;20208;-71
2021/10/11 05:48:19;;;;;;;0.20;0.20;;;;;;;;;;5064121;28;20204;-71
2021/10/11 05:50:45;;;;;;;0.20;0.20;;;;;;;;;;5063662;28;20300;-72
2021/10/11 05:53:12;;;;;;;0.20;0.20;;;;;;;;;;5063818;28;20238;-72
2021/10/11 05:55:39;;;;;;;0.10;0.10;;;;;;;;;;5063707;28;20227;-72
2021/10/11 05:58:06;;;;;;;0.17;0.17;;;;;;;;;;5063985;28;20261;-71
2021/10/11 06:00:32;;;;;;;0.13;0.13;;;;;;;;;;5060928;28;20544;-72
2021/10/11 06:02:58;;;;;;;0.20;0.20;;;;;;;;;;5046844;28;20263;-71
2021/10/11 06:05:24;;;;;;;0.20;0.20;;;;;;;;;;5047000;28;20207;-72
2021/10/11 06:07:50;;;;;;;0.20;0.20;;;;;;;;;;5054590;28;20226;-72
2021/10/11 06:10:17;;;;;;;0.10;0.10;;;;;;;;;;5049940;28;20228;-71
2021/10/11 06:12:44;;;;;;;0.10;0.10;;;;;;;;;;5059977;28;20211;-69
2021/10/11 06:15:11;;;;;;;0.20;0.20;;;;;;;;;;5060920;28;20207;-70
2021/10/11 06:17:37;;;;;;;0.10;0.10;;;;;;;;;;5062853;28;20207;-71
2021/10/11 06:20:04;;;;;;;0.10;0.10;;;;;;;;;;5055567;28;20196;-71
2021/10/11 06:22:30;;;;;;;0.10;0.10;;;;;;;;;;5049158;28;20242;-71
2021/10/11 06:24:56;;;;;;;0.17;0.17;;;;;;;;;;5046274;28;20200;-71
2021/10/11 06:27:23;;;;;;;0.10;0.10;;;;;;;;;;5052907;28;20230;-71
2021/10/11 06:29:50;;;;;;;0.20;0.20;;;;;;;;;;5055340;28;20264;-72
2021/10/11 06:32:17;;;;;;;0.10;0.10;;;;;;;;;;5043874;28;20254;-76
2021/10/11 06:34:43;;;;;;;0.20;0.20;;;;;;;;;;5056906;28;20226;-75
2021/10/11 06:37:09;;;;;;;0.10;0.10;;;;;;;;;;5045505;28;20259;-76
2021/10/11 06:39:35;;;;;;;0.20;0.20;;;;;;;;;;5055595;28;20203;-71
2021/10/11 06:42:02;;;;;;;0.10;0.10;;;;;;;;;;5052696;28;20391;-72
2021/10/11 06:44:28;;;;;;;0.20;0.20;;;;;;;;;;5053543;28;20207;-72
2021/10/11 06:46:56;;;;;;;0.10;0.10;;;;;;;;;;5054328;28;20258;-74
2021/10/11 06:49:22;;;;;;;0.13;0.13;;;;;;;;;;5049890;28;20209;-73
2021/10/11 06:51:49;;;;;;;0.20;0.20;;;;;;;;;;5049347;28;20319;-72
2021/10/11 06:54:15;;;;;;;0.13;0.13;;;;;;;;;;5049878;28;20231;-73
2021/10/11 06:56:41;;;;;;;0.20;0.20;;;;;;;;;;5054901;28;20274;-71
2021/10/11 06:59:07;;;;;;;0.20;0.20;;;;;;;;;;5054715;28;20208;-71
2021/10/11 07:01:33;;;;;;;0.13;0.13;;;;;;;;;;5053620;28;20196;-72
2021/10/11 07:04:01;;;;;;;0.20;0.20;;;;;;;;;;5054690;28;20239;-73
2021/10/11 07:06:27;;;;;;;0.20;0.20;;;;;;;;;;5061842;28;20209;-74
2021/10/11 07:08:53;;;;;;;0.20;0.20;;;;;;;;;;5062423;28;20459;-72
2021/10/11 07:11:20;;;;;;;0.20;0.20;;;;;;;;;;5046192;28;20229;-73
2021/10/11 07:13:46;;;;;;;0.20;0.20;;;;;;;;;;5054495;28;20496;-72
2021/10/11 07:16:12;;;;;;;0.10;0.10;;;;;;;;;;5042930;28;20201;-73
2021/10/11 07:18:39;;;;;;;0.10;0.10;;;;;;;;;;5042597;28;20209;-71
2021/10/11 07:21:07;;;;;;;0.10;0.10;;;;;;;;;;5043011;28;20215;-73
2021/10/11 07:23:34;;;;;;;0.10;0.10;;;;;;;;;;5044958;28;20216;-72
2021/10/11 07:26:02;;;;;;;0.30;0.30;;;;;;;;;;5051864;28;20212;-73
2021/10/11 07:28:29;;;;;;;0.20;0.20;;;;;;;;;;5056694;28;20384;-71
2021/10/11 07:30:55;;;;;;;0.20;0.20;;;;;;;;;;5055591;28;20219;-72
2021/10/11 07:33:22;;;;;;;0.10;0.10;;;;;;;;;;5058157;28;20204;-72
2021/10/11 07:35:48;;;;;;;0.10;0.10;;;;;;;;;;5062362;28;20227;-71
2021/10/11 07:38:16;;;;;;;0.20;0.20;;;;;;;;;;5063431;28;20213;-72
2021/10/11 07:40:42;;;;;;;0.10;0.10;;;;;;;;;;5062786;28;20226;-70
2021/10/11 07:43:08;;;;;;;0.20;0.20;;;;;;;;;;5063438;28;20228;-73
2021/10/11 07:45:34;;;;;;;0.13;0.13;;;;;;;;;;5054079;28;20210;-71
2021/10/11 07:48:01;;;;;;;0.10;0.10;;;;;;;;;;5064242;28;20429;-71
2021/10/11 07:50:29;;;;;;;0.20;0.20;;;;;;;;;;5048560;28;20397;-71
2021/10/11 07:52:55;;;;;;;0.10;0.10;;;;;;;;;;5052575;28;20223;-71
2021/10/11 07:55:23;;;;;;;0.10;0.10;;;;;;;;;;5055195;28;20212;-72
2021/10/11 07:57:49;;;;;;;0.20;0.20;;;;;;;;;;5062691;28;20264;-70
2021/10/11 08:00:19;;;;;;;0.10;0.10;;;;;;;;;;5066373;28;20488;-71
2021/10/11 08:02:45;;;;;;;0.10;0.10;;;;;;;;;;5052886;28;20376;-72
2021/10/11 08:05:12;;;;;;;0.10;0.10;;;;;;;;;;5045989;28;20234;-71
2021/10/11 08:07:38;;;;;;;0.10;0.10;;;;;;;;;;5046095;28;20208;-71
2021/10/11 08:10:05;;;;;;;0.10;0.10;;;;;;;;;;5046005;28;20243;-72
2021/10/11 08:12:33;;;;;;;0.37;0.37;;;;;;;;;;5051736;28;20232;-72
2021/10/11 08:14:59;;;;;;;0.10;0.10;;;;;;;;;;5045903;28;20457;-71
2021/10/11 08:17:25;;;;;;;0.10;0.10;;;;;;;;;;5045916;28;20256;-72
2021/10/11 08:19:51;;;;;;;0.10;0.10;;;;;;;;;;5056230;28;20213;-72
2021/10/11 08:22:19;;;;;;;0.10;0.10;;;;;;;;;;5051959;28;20206;-71
2021/10/11 08:24:46;;;;;;;0.10;0.10;;;;;;;;;;5057085;28;20228;-71
2021/10/11 08:27:16;;;;;;;0.10;0.10;;;;;;;;;;5059312;28;20206;-70
2021/10/11 08:29:51;;;;;;;0.10;0.10;;;;;;;;;;5045880;28;20210;-73
2021/10/11 08:32:17;;;;;;;0.10;0.10;;;;;;;;;;5045749;28;20201;-74
2021/10/11 08:34:43;;;;;;;0.10;0.10;;;;;;;;;;5055263;28;20202;-73
2021/10/11 08:37:10;;;;;;;0.83;0.83;;;;;;;;;;5055643;28;20206;-73
2021/10/11 08:39:36;;;;;;;0.20;0.20;;;;;;;;;;5058183;28;20203;-74
2021/10/11 08:42:03;;;;;;;0.10;0.10;;;;;;;;;;5061237;28;20213;-73
2021/10/11 08:44:29;;;;;;;1.90;0.93;;;;;;;;;;5060300;28;20338;-71
2021/10/11 08:46:58;;;;;;;0.10;0.10;;;;;;;;;;5060119;28;20220;-74
2021/10/11 08:49:25;;;;;;;1.43;1.33;;;;;;;;;;5055084;28;20209;-73
2021/10/11 08:51:51;;;;;;;0.10;0.10;;;;;;;;;;5045432;28;20225;-73
2021/10/11 08:54:17;;;;;;;0.20;0.20;;;;;;;;;;5048581;28;20500;-73
2021/10/11 08:56:44;;;;;;;0.10;0.10;;;;;;;;;;5048489;28;20426;-71
2021/10/11 08:59:12;;;;;;;0.10;0.10;;;;;;;;;;5048537;28;20516;-71
2021/10/11 09:01:38;;;;;;;0.10;0.10;;;;;;;;;;5051603;28;20221;-71
2021/10/11 09:04:16;;;;;;;0.20;0.20;;;;;;;;;;5048088;28;20277;-71
2021/10/11 09:06:47;;;;;;;0.40;0.40;;;;;;;;;;5048025;28;20210;-72
2021/10/11 09:09:13;;;;;;;4.40;4.10;;;;;;;;;;5045164;28;20206;-71
2021/10/11 09:11:39;;;;;;;0.10;0.10;;;;;;;;;;5060644;28;20229;-71
2021/10/11 09:14:06;;;;;;;6.60;1.60;;;;;;;;;;5065037;28;20210;-72
2021/10/11 09:16:33;;;;;;;0.20;0.20;;;;;;;;;;5053844;28;20248;-72
2021/10/11 09:19:08;;;;;;;0.17;0.17;;;;;;;;;;5047885;28;20212;-71
2021/10/11 09:21:36;;;;;;;0.10;0.10;;;;;;;;;;5054809;28;20505;-72
2021/10/11 09:24:04;;;;;;;0.10;0.10;;;;;;;;;;5046115;28;20250;-71
2021/10/11 09:26:40;;;;;;;0.20;0.20;;;;;;;;;;5045517;28;20499;-73
2021/10/11 09:29:06;;;;;;;0.20;0.20;;;;;;;;;;5047313;28;20205;-72
2021/10/11 09:31:37;;;;;;;1.60;1.60;;;;;;;;;;5052324;28;20294;-71
2021/10/11 09:34:03;;;;;;;0.10;0.10;;;;;;;;;;5048182;28;20564;-71
2021/10/11 09:36:30;;;;;;;0.10;0.10;;;;;;;;;;5044259;28;20437;-73
2021/10/11 09:39:01;;;;;;;0.20;0.20;;;;;;;;;;5045515;28;20510;-73
2021/10/11 09:41:27;;;;;;;0.23;0.23;;;;;;;;;;5045404;28;20215;-72
2021/10/11 09:43:53;;;;;;;0.47;0.43;;;;;;;;;;5045199;28;20201;-73
2021/10/11 09:46:21;;;;;;;0.50;0.50;;;;;;;;;;5059267;28;20315;-73
2021/10/11 09:48:51;;;;;;;0.97;0.97;;;;;;;;;;5045447;28;20208;-73
2021/10/11 09:51:20;;;;;;;0.10;0.10;;;;;;;;;;5044765;28;20261;-72
2021/10/11 09:53:47;;;;;;;0.10;0.10;;;;;;;;;;5045502;28;20216;-72
2021/10/11 09:56:15;;;;;;;0.10;0.10;;;;;;;;;;5050233;28;20204;-71
2021/10/11 09:58:41;;;;;;;0.10;0.10;;;;;;;;;;5049490;28;20504;-72
2021/10/11 10:01:07;;;;;;;0.10;0.10;;;;;;;;;;5050091;28;20265;-71
2021/10/11 10:03:34;;;;;;;0.10;0.10;;;;;;;;;;5049943;28;20251;-72
2021/10/11 10:06:02;;;;;;;0.10;0.10;;;;;;;;;;5044213;28;20476;-72
2021/10/11 10:08:30;;;;;;;0.10;0.10;;;;;;;;;;5054791;28;20391;-71
2021/10/11 10:10:57;;;;;;;0.10;0.10;;;;;;;;;;5051361;28;20223;-71
2021/10/11 10:13:25;;;;;;;0.10;0.10;;;;;;;;;;5060764;28;20201;-71
2021/10/11 10:15:51;;;;;;;0.10;0.10;;;;;;;;;;5062817;28;20263;-71
2021/10/11 10:18:19;;;;;;;0.10;0.10;;;;;;;;;;5063598;28;20223;-72
2021/10/11 10:20:53;;;;;;;0.10;0.10;;;;;;;;;;5063330;28;20248;-72
2021/10/11 10:23:23;;;;;;;2.43;2.33;;;;;;;;;;5062501;28;20494;-73
2021/10/11 10:25:49;;;;;;;2.80;2.57;;;;;;;;;;5062067;28;20267;-72
2021/10/11 10:28:16;;;;;;;0.10;0.10;;;;;;;;;;5061661;28;20251;-74
2021/10/11 10:30:54;;;;;;;0.10;0.10;;;;;;;;;;5058436;28;20284;-71
2021/10/11 10:33:20;;;;;;;0.10;0.10;;;;;;;;;;5060442;28;20506;-71
2021/10/11 10:35:47;;;;;;;0.10;0.10;;;;;;;;;;5057800;28;20542;-73
2021/10/11 10:38:17;;;;;;;0.10;0.10;;;;;;;;;;5054322;28;20205;-73
2021/10/11 10:40:43;;;;;;;0.10;0.10;;;;;;;;;;5045675;28;20203;-72
2021/10/11 10:43:12;;;;;;;0.32;0.32;;;;;;;;;;5061238;28;20544;-72
2021/10/11 10:45:39;;;;;;;0.03;0.03;;;;;;;;;;5061132;28;20204;-72
2021/10/11 10:48:17;;;;;;;1.05;1.05;;;;;;;;;;5060873;28;20204;-74
2021/10/11 10:50:43;;;;;;;0.03;0.03;;;;;;;;;;5059126;28;20231;-73
2021/10/11 10:53:10;;;;;;;0.20;0.20;;;;;;;;;;5058634;28;20201;-74
2021/10/11 10:55:38;;;;;;;0.00;0.00;;;;;;;;;;5055012;28;20248;-71
2021/10/11 10:58:05;;;;;;;0.10;0.10;;;;;;;;;;5042831;28;20405;-73
2021/10/11 11:00:32;;;;;;;0.13;0.13;;;;;;;;;;5057478;28;20372;-73
2021/10/11 11:02:58;;;;;;;0.10;0.10;;;;;;;;;;5061876;28;20509;-71
2021/10/11 11:05:27;;;;;;;0.00;0.00;;;;;;;;;;5062801;28;20504;-73
2021/10/11 11:07:53;;;;;;;2.45;2.35;;;;;;;;;;5060781;28;20497;-74
2021/10/11 11:10:21;;;;;;;0.10;0.10;;;;;;;;;;5054081;28;20233;-73
2021/10/11 11:12:53;;;;;;;0.10;0.10;;;;;;;;;;5060941;28;20231;-73
2021/10/11 11:15:23;;;;;;;0.10;0.10;;;;;;;;;;5052638;28;20198;-72
2021/10/11 11:17:50;;;;;;;0.00;0.00;;;;;;;;;;5046523;28;20247;-74
2021/10/11 11:20:18;;;;;;;0.10;0.10;;;;;;;;;;5059125;28;20230;-73
2021/10/11 11:22:45;;;;;;;0.10;0.10;;;;;;;;;;5054556;28;20196;-73
2021/10/11 11:25:12;;;;;;;0.05;0.05;;;;;;;;;;5046647;28;20441;-73
2021/10/11 11:27:39;;;;;;;0.00;0.00;;;;;;;;;;5060962;28;20215;-72
2021/10/11 11:30:07;;;;;;;0.00;0.00;;;;;;;;;;5059155;28;20211;-72
2021/10/11 11:32:37;;;;;;;0.00;0.00;;;;;;;;;;5059195;28;20464;-73
2021/10/11 11:35:04;;;;;;;0.00;0.00;;;;;;;;;;5062587;28;20203;-73
2021/10/11 11:37:30;;;;;;;0.00;0.00;;;;;;;;;;5062159;28;20225;-73
2021/10/11 11:40:06;;;;;;;0.00;0.00;;;;;;;;;;5062415;28;20552;-73
2021/10/11 11:42:32;;;;;;;0.08;0.08;;;;;;;;;;5055641;28;20222;-72
2021/10/11 11:44:58;;;;;;;0.10;0.10;;;;;;;;;;5059337;28;20202;-73
2021/10/11 11:47:28;;;;;;;0.00;0.00;;;;;;;;;;5060924;28;20228;-73
2021/10/11 11:49:54;;;;;;;0.10;0.10;;;;;;;;;;5059309;28;20203;-74
2021/10/11 11:52:20;;;;;;;0.00;0.00;;;;;;;;;;5044886;28;20558;-72
2021/10/11 11:54:53;;;;;;;2.83;2.72;;;;;;;;;;5047414;28;20248;-72
2021/10/11 11:57:20;;;;;;;0.57;0.57;;;;;;;;;;5057267;28;20205;-72
2021/10/11 11:59:48;;;;;;;1.85;0.82;;;;;;;;;;5046166;28;20264;-72
2021/10/11 12:02:15;;;;;;;0.10;0.10;;;;;;;;;;5059652;28;20218;-71
2021/10/11 12:04:43;;;;;;;0.08;0.08;;;;;;;;;;5056338;28;20302;-71
2021/10/11 12:07:10;;;;;;;0.10;0.10;;;;;;;;;;5052376;28;20213;-73
2021/10/11 12:09:36;;;;;;;0.00;0.00;;;;;;;;;;5055365;28;20201;-72
2021/10/11 12:12:03;;;;;;;0.10;0.10;;;;;;;;;;5054012;28;20412;-72
2021/10/11 12:14:31;;;;;;;0.00;0.00;;;;;;;;;;5053595;28;20209;-72
2021/10/11 12:17:01;;;;;;;0.10;0.10;;;;;;;;;;5046741;28;20226;-73
2021/10/11 12:19:28;;;;;;;0.10;0.10;;;;;;;;;;5049250;28;20212;-73
2021/10/11 12:21:56;;;;;;;0.10;0.10;;;;;;;;;;5043900;28;20224;-73
2021/10/11 12:24:23;;;;;;;0.10;0.10;;;;;;;;;;5059444;28;20269;-73
2021/10/11 12:26:51;;;;;;;0.10;0.10;;;;;;;;;;5057592;28;20204;-74
2021/10/11 12:29:19;;;;;;;0.10;0.10;;;;;;;;;;5047390;28;20205;-74
2021/10/11 12:31:54;;;;;;;0.10;0.10;;;;;;;;;;5064337;28;20455;-73
2021/10/11 12:34:25;;;;;;;0.03;0.03;;;;;;;;;;5059495;28;20203;-73
2021/10/11 12:36:54;;;;;;;0.10;0.10;;;;;;;;;;5053011;28;20228;-73
2021/10/11 12:39:20;;;;;;;0.10;0.10;;;;;;;;;;5059406;28;20201;-72
2021/10/11 12:41:47;;;;;;;0.10;0.10;;;;;;;;;;5045527;28;20202;-73
2021/10/11 12:44:16;;;;;;;0.10;0.10;;;;;;;;;;5045203;28;20264;-73
2021/10/11 12:46:43;;;;;;;0.10;0.10;;;;;;;;;;5045499;28;20208;-73
2021/10/11 12:49:11;;;;;;;0.10;0.10;;;;;;;;;;5045658;28;20381;-72
2021/10/11 12:51:38;;;;;;;0.10;0.10;;;;;;;;;;5058237;28;20226;-72
2021/10/11 12:54:05;;;;;;;0.10;0.10;;;;;;;;;;5057842;28;20201;-73
2021/10/11 12:56:31;;;;;;;0.40;0.40;;;;;;;;;;5060249;28;20496;-73
2021/10/11 12:58:58;;;;;;;0.20;0.20;;;;;;;;;;5058233;28;20205;-72
2021/10/11 13:01:24;;;;;;;0.10;0.10;;;;;;;;;;5057038;28;20432;-72
2021/10/11 13:03:51;;;;;;;0.10;0.10;;;;;;;;;;5057506;28;20265;-71
2021/10/11 13:06:21;;;;;;;0.10;0.10;;;;;;;;;;5059946;28;20554;-71
2021/10/11 13:08:47;;;;;;;0.10;0.10;;;;;;;;;;5045644;28;20236;-72
2021/10/11 13:11:14;;;;;;;0.17;0.17;;;;;;;;;;5047761;28;20445;-70
2021/10/11 13:13:40;;;;;;;0.10;0.10;;;;;;;;;;5049824;28;20489;-72
2021/10/11 13:16:06;;;;;;;0.10;0.10;;;;;;;;;;5056703;28;20243;-70
2021/10/11 13:18:32;;;;;;;0.10;0.10;;;;;;;;;;5044931;28;20205;-72
2021/10/11 13:21:00;;;;;;;2.83;2.63;;;;;;;;;;5057604;28;20518;-72
2021/10/11 13:23:28;;;;;;;0.10;0.10;;;;;;;;;;5052696;28;20201;-73
2021/10/11 13:25:54;;;;;;;0.10;0.10;;;;;;;;;;5048821;28;20369;-72
2021/10/11 13:28:20;;;;;;;0.10;0.10;;;;;;;;;;5054532;28;20211;-71
2021/10/11 13:31:35;;;;;;;0.10;0.10;;;;;;;;;;5052310;28;20556;-72
2021/10/11 13:34:18;;;;;;;0.10;0.10;;;;;;;;;;5054383;28;20211;-72
2021/10/11 14:26:37;;;;;;;0.10;0.10;;;;;;;;;;5053793;28;20330;-72
2021/10/11 14:29:11;;;;;;;0.10;0.10;;;;;;;;;;5043606;28;20404;-73
2021/10/11 14:31:47;;;;;;;0.10;0.10;;;;;;;;;;5052827;28;20302;-74
2021/10/11 14:34:27;;;;;;;0.10;0.10;;;;;;;;;;5046843;28;20602;-73
2021/10/11 15:59:44;;;;;;;0.10;0.10;;;;;;;;;;5057452;28;20492;-66
2021/10/11 16:02:18;;;;;;;0.00;0.00;;;;;;;;;;5050673;28;20204;-64
2021/10/11 16:04:44;;;;;;;0.10;0.10;;;;;;;;;;5054770;28;20238;-65
2021/10/11 16:07:12;;;;;;;0.10;0.10;;;;;;;;;;5058368;28;20240;-64
2021/10/11 16:09:38;;;;;;;0.10;0.10;;;;;;;;;;5053310;28;20208;-64
2021/10/11 16:12:05;;;;;;;0.10;0.10;;;;;;;;;;5059160;28;20241;-66
2021/10/11 16:14:31;;;;;;;0.10;0.10;;;;;;;;;;5053691;28;20212;-64
2021/10/11 16:16:57;;;;;;;0.10;0.10;;;;;;;;;;5050103;28;20560;-63
2021/10/11 16:19:23;;;;;;;0.10;0.10;;;;;;;;;;5046266;28;20330;-64
2021/10/11 16:21:50;;;;;;;0.10;0.10;;;;;;;;;;5050241;28;20208;-72
2021/10/11 16:24:19;;;;;;;0.10;0.10;;;;;;;;;;5050498;28;20211;-73
2021/10/11 16:26:47;;;;;;;0.10;0.10;;;;;;;;;;5050517;28;20290;-73
2021/10/11 16:29:13;;;;;;;0.10;0.10;;;;;;;;;;5050597;28;20228;-76
2021/10/11 16:31:39;;;;;;;0.10;0.10;;;;;;;;;;5050440;28;20211;-72
2021/10/11 16:34:06;;;;;;;0.10;0.10;;;;;;;;;;5051999;28;20251;-72
2021/10/11 16:36:32;;;;;;;0.10;0.10;;;;;;;;;;5051386;28;20215;-73
2021/10/11 16:38:58;;;;;;;0.10;0.10;;;;;;;;;;5050600;28;20258;-75
2021/10/11 16:41:26;;;;;;;0.00;0.00;;;;;;;;;;5050529;28;20208;-75
2021/10/11 16:43:52;;;;;;;0.10;0.10;;;;;;;;;;5057039;28;20226;-74
2021/10/11 16:46:18;;;;;;;0.10;0.10;;;;;;;;;;5057284;28;20511;-75
2021/10/11 16:48:45;;;;;;;0.10;0.10;;;;;;;;;;5051685;28;20378;-75
2021/10/11 16:51:11;;;;;;;0.10;0.10;;;;;;;;;;5062893;28;20433;-76
2021/10/11 16:56:20;;;;;;;0.10;0.10;;;;;;;;;;5054161;28;20207;-76
2021/10/11 16:58:48;;;;;;;0.10;0.10;;;;;;;;;;5060824;28;20203;-74